Terminal Aerodrome Forecast
Issued by NWS Paducah, KY

Home | Current Version | Previous Version | Text Only | Print | Product List | Glossary On
Versions: 1 2 3 4 5 6 7 8 9 10 11 12 13 14 15 16 17 18 19
000
FTUS43 KPAH 200305 AAC
TAFPAH
TAF AMD
KPAH 200305Z 2003/2024 VRB04KT P6SM -SHRA OVC035
      TEMPO 2003/2006 3SM -DZ BR OVC015
     FM200600 VRB02KT 3SM BR VCSH OVC009
     FM200800 VRB02KT 5SM BR OVC007
     FM201400 21005KT 5SM BR OVC005
     FM201800 19009KT 6SM BR OVC012=

USA.gov is the U.S. government's official web portal to all federal, state and local government web resources and services.